createdAt,value
2019-03-01T00:04:51.656Z,85.40
2019-03-01T00:15:27.342Z,85.70
2019-03-01T00:25:56.446Z,86.00
2019-03-01T00:36:42.823Z,86.70
2019-03-01T00:46:47.216Z,86.40
2019-03-01T00:56:51.320Z,86.50
2019-03-01T01:06:55.191Z,86.20
2019-03-01T01:16:59.161Z,86.00
2019-03-01T01:27:03.327Z,86.20
2019-03-01T01:37:07.789Z,87.20
2019-03-01T01:47:11.652Z,87.40
2019-03-01T01:57:15.717Z,88.20
2019-03-01T02:07:20.032Z,89.20
2019-03-01T02:17:23.827Z,89.20
2019-03-01T02:27:32.695Z,88.90
2019-03-01T02:37:37.299Z,89.40
2019-03-01T02:47:41.795Z,89.30
2019-03-01T02:57:45.836Z,88.90
2019-03-01T03:07:55.025Z,88.70
2019-03-01T03:17:59.432Z,89.10
2019-03-01T03:28:03.811Z,89.00
2019-03-01T03:38:07.876Z,88.60
2019-03-01T03:48:12.771Z,88.70
2019-03-01T03:58:16.911Z,88.60
2019-03-01T04:08:21.222Z,88.60
2019-03-01T04:18:25.624Z,88.60
2019-03-01T04:28:29.775Z,88.50
2019-03-01T04:38:33.610Z,88.50
2019-03-01T04:48:37.676Z,88.60
2019-03-01T04:58:41.790Z,88.80
2019-03-01T05:08:45.835Z,88.80
2019-03-01T05:18:49.631Z,89.00
2019-03-01T05:28:53.422Z,88.90
2019-03-01T05:38:57.480Z,88.80
2019-03-01T05:49:01.800Z,89.00
2019-03-01T05:59:14.491Z,89.20
2019-03-01T06:09:55.862Z,89.40
2019-03-01T06:20:18.475Z,89.00
2019-03-01T06:30:40.157Z,89.20
2019-03-01T06:41:37.495Z,88.90
2019-03-01T06:51:41.650Z,88.60
2019-03-01T07:01:46.812Z,89.40
2019-03-01T07:11:51.255Z,88.70
2019-03-01T07:21:55.751Z,88.40
2019-03-01T07:31:59.578Z,88.20
2019-03-01T07:42:03.358Z,87.80
2019-03-01T07:52:25.370Z,87.40
2019-03-01T08:02:29.846Z,87.10
2019-03-01T08:12:33.791Z,86.90
2019-03-01T08:22:48.074Z,86.80
2019-03-01T08:32:44.486Z,86.20
2019-03-01T08:42:48.583Z,86.00
2019-03-01T08:52:52.368Z,84.50
2019-03-01T09:02:58.200Z,79.60
2019-03-01T09:13:02.751Z,80.80
2019-03-01T09:23:19.747Z,80.50
2019-03-01T09:33:13.317Z,77.20
2019-03-01T09:43:19.910Z,78.00
2019-03-01T09:53:24.179Z,78.20
2019-03-01T10:03:28.403Z,78.20
2019-03-01T10:23:37.119Z,76.90
2019-03-01T10:33:41.234Z,76.40
2019-03-01T10:43:45.532Z,75.80
2019-03-01T10:53:49.563Z,75.40
2019-03-01T11:03:53.935Z,74.20
2019-03-01T11:13:57.726Z,73.50
2019-03-01T11:24:01.506Z,72.90
2019-03-01T11:34:05.822Z,73.20
2019-03-01T11:44:10.286Z,73.30
2019-03-01T11:55:09.152Z,70.70
2019-03-01T12:05:13.669Z,72.10
2019-03-01T12:15:17.719Z,71.90
2019-03-01T12:25:22.495Z,71.70
2019-03-01T12:35:26.490Z,70.90
2019-03-01T12:45:30.638Z,71.00
2019-03-01T12:55:35.024Z,70.40
2019-03-01T13:05:39.419Z,70.20
2019-03-01T13:15:45.480Z,70.30
2019-03-01T13:25:50.020Z,70.10
2019-03-01T13:35:53.815Z,70.20
2019-03-01T13:46:00.220Z,70.40
2019-03-01T13:56:03.962Z,69.90
2019-03-01T14:06:08.091Z,70.10
2019-03-01T14:16:12.158Z,70.30
2019-03-01T14:26:18.486Z,70.80
2019-03-01T14:36:22.346Z,72.10
2019-03-01T14:46:26.387Z,71.50
2019-03-01T14:56:35.758Z,71.50
2019-03-01T15:06:40.043Z,70.00
2019-03-01T15:16:44.432Z,71.10
2019-03-01T15:26:48.555Z,71.70
2019-03-01T15:36:55.498Z,71.80
2019-03-01T15:46:58.415Z,72.30
2019-03-01T15:57:19.741Z,72.70
2019-03-01T16:07:23.571Z,73.10
2019-03-01T16:18:01.134Z,72.80
2019-03-01T16:28:05.007Z,72.90
2019-03-01T16:38:10.283Z,73.40
2019-03-01T16:48:26.442Z,73.80
2019-03-01T16:58:30.239Z,73.90
2019-03-01T17:08:36.384Z,73.80
2019-03-01T17:18:40.075Z,73.70
2019-03-01T17:28:44.402Z,73.50
2019-03-01T17:38:48.523Z,73.70
2019-03-01T17:48:54.258Z,74.00
2019-03-01T17:58:58.078Z,74.10
2019-03-01T18:09:02.774Z,75.60
2019-03-01T18:19:06.935Z,74.70
2019-03-01T18:29:11.307Z,74.90
2019-03-01T18:39:21.819Z,75.00
2019-03-01T18:49:26.148Z,75.10
2019-03-01T18:59:30.005Z,74.80
2019-03-01T19:09:33.930Z,75.50
2019-03-01T19:19:38.214Z,75.10
2019-03-01T19:29:42.810Z,74.90
2019-03-01T19:39:47.178Z,74.40
2019-03-01T19:49:51.487Z,74.50
2019-03-01T19:59:55.815Z,73.70
2019-03-01T20:09:59.959Z,74.60
2019-03-01T20:20:04.028Z,74.70
2019-03-01T20:30:12.698Z,74.90
2019-03-01T20:40:16.779Z,75.00
2019-03-01T20:50:21.371Z,75.50
2019-03-01T21:00:26.213Z,75.80
2019-03-01T21:10:31.070Z,76.10
2019-03-01T21:20:35.306Z,76.00
2019-03-01T21:30:39.347Z,76.00
2019-03-01T21:40:43.999Z,76.00
2019-03-01T21:50:48.050Z,76.40
2019-03-01T22:00:52.134Z,76.40
2019-03-01T22:10:56.441Z,76.50
2019-03-01T22:21:00.490Z,76.40
2019-03-01T22:31:04.692Z,76.30
2019-03-01T22:41:09.007Z,76.40
2019-03-01T22:51:14.434Z,76.40
2019-03-01T23:01:44.293Z,76.00
2019-03-01T23:11:48.447Z,76.20
2019-03-01T23:21:52.474Z,76.20
2019-03-01T23:31:56.849Z,76.00
2019-03-01T23:42:00.674Z,76.40
2019-03-01T23:52:08.194Z,76.60
